createdAt,value
2022-12-24T00:01:39.341Z,0.25
2022-12-24T00:04:08.465Z,0.40
2022-12-24T00:06:38.957Z,0.30
2022-12-24T00:09:08.069Z,0.60
2022-12-24T00:11:36.786Z,0.60
2022-12-24T00:14:05.524Z,0.30
2022-12-24T00:16:34.292Z,0.50
2022-12-24T00:19:04.410Z,0.57
2022-12-24T00:21:33.055Z,0.65
2022-12-24T00:24:04.077Z,0.40
2022-12-24T00:26:33.072Z,0.60
2022-12-24T00:29:02.152Z,0.43
2022-12-24T00:31:31.020Z,0.52
2022-12-24T00:33:59.814Z,0.40
2022-12-24T00:36:29.811Z,0.50
2022-12-24T00:38:58.409Z,0.40
2022-12-24T00:41:29.460Z,0.50
2022-12-24T00:44:01.392Z,0.32
2022-12-24T00:46:31.974Z,0.70
2022-12-24T00:49:02.233Z,0.70
2022-12-24T00:51:32.599Z,0.40
2022-12-24T00:54:01.419Z,0.47
2022-12-24T00:56:30.087Z,0.40
2022-12-24T00:58:58.909Z,0.50
2022-12-24T01:01:28.325Z,0.70
2022-12-24T01:04:17.556Z,0.80
2022-12-24T01:06:46.664Z,0.60
2022-12-24T01:09:17.153Z,0.70
2022-12-24T01:11:46.434Z,0.57
2022-12-24T01:14:14.985Z,0.55
2022-12-24T01:16:45.207Z,0.50
2022-12-24T01:19:14.076Z,0.40
2022-12-24T01:21:42.711Z,0.50
2022-12-24T01:24:16.458Z,0.63
2022-12-24T01:26:45.339Z,0.30
2022-12-24T01:29:14.092Z,0.47
2022-12-24T01:31:42.830Z,0.40
2022-12-24T01:34:11.636Z,0.63
2022-12-24T01:36:40.287Z,0.45
2022-12-24T01:39:09.020Z,0.50
2022-12-24T01:41:56.642Z,0.28
2022-12-24T01:44:35.192Z,0.30
2022-12-24T01:47:10.520Z,0.40
2022-12-24T01:49:43.612Z,0.30
2022-12-24T01:52:16.214Z,0.50
2022-12-24T01:54:49.211Z,0.45
2022-12-24T01:57:23.505Z,0.60
2022-12-24T01:59:58.033Z,0.40
2022-12-24T02:02:27.999Z,0.30
2022-12-24T02:05:03.231Z,0.38
2022-12-24T02:07:32.393Z,0.50
2022-12-24T02:10:02.644Z,1.08
2022-12-24T02:12:36.400Z,0.40
2022-12-24T02:15:05.997Z,0.40
2022-12-24T02:17:40.786Z,0.80
2022-12-24T02:20:31.731Z,0.50
2022-12-24T02:23:28.610Z,0.30
2022-12-24T02:26:19.622Z,0.40
2022-12-24T02:29:11.522Z,0.47
2022-12-24T02:31:44.973Z,0.45
2022-12-24T02:34:19.887Z,0.50
2022-12-24T02:36:54.688Z,0.50
2022-12-24T02:39:29.836Z,0.85
2022-12-24T02:42:09.437Z,0.63
2022-12-24T02:44:42.661Z,0.50
2022-12-24T02:47:13.487Z,0.60
2022-12-24T02:49:46.385Z,0.73
2022-12-24T02:52:30.351Z,0.47
2022-12-24T02:55:00.560Z,0.40
2022-12-24T02:57:38.295Z,0.40
2022-12-24T03:00:09.104Z,0.60
2022-12-24T03:03:13.143Z,0.52
2022-12-24T03:05:49.442Z,0.57
2022-12-24T03:08:28.326Z,0.50
2022-12-24T03:11:01.843Z,0.70
2022-12-24T03:13:31.110Z,0.50
2022-12-24T03:16:00.055Z,0.68
2022-12-24T03:18:32.167Z,0.85
2022-12-24T03:21:06.973Z,0.60
2022-12-24T03:23:36.100Z,0.57
2022-12-24T03:26:08.382Z,0.50
2022-12-24T03:28:40.072Z,0.50
2022-12-24T03:31:10.075Z,0.65
2022-12-24T03:33:40.657Z,0.40
2022-12-24T03:36:10.785Z,0.60
2022-12-24T03:38:39.479Z,0.55
2022-12-24T03:41:08.804Z,0.35
2022-12-24T03:43:37.470Z,0.47
2022-12-24T03:46:09.438Z,0.50
2022-12-24T03:48:39.595Z,0.40
2022-12-24T03:51:19.343Z,0.60
2022-12-24T03:56:16.771Z,0.60
2022-12-24T03:58:45.555Z,0.57
2022-12-24T04:01:14.298Z,0.45
2022-12-24T04:03:44.729Z,0.57
2022-12-24T04:06:16.089Z,0.50
2022-12-24T04:08:45.098Z,0.80
2022-12-24T04:11:20.301Z,1.02
2022-12-24T04:13:49.355Z,0.50
2022-12-24T04:16:18.889Z,0.52
2022-12-24T04:18:52.283Z,0.82
2022-12-24T04:21:21.123Z,0.57
2022-12-24T04:23:50.001Z,0.65
2022-12-24T04:26:18.749Z,0.40
2022-12-24T04:28:49.877Z,0.95
2022-12-24T04:31:19.512Z,0.50
2022-12-24T04:33:48.476Z,1.45
2022-12-24T04:36:19.734Z,0.93
2022-12-24T04:38:49.928Z,0.88
2022-12-24T04:41:23.785Z,0.68
2022-12-24T04:43:56.840Z,0.85
2022-12-24T04:46:27.992Z,0.77
2022-12-24T04:48:56.799Z,0.88
2022-12-24T04:51:28.022Z,0.80
2022-12-24T04:53:57.421Z,1.10
2022-12-24T04:56:28.431Z,0.73
2022-12-24T04:58:57.452Z,0.68
2022-12-24T05:01:30.875Z,1.00
2022-12-24T05:03:59.920Z,0.70
2022-12-24T05:06:33.278Z,0.70
2022-12-24T05:09:02.531Z,0.60
2022-12-24T05:11:31.653Z,0.70
2022-12-24T05:14:05.283Z,0.55
2022-12-24T05:16:36.213Z,0.90
2022-12-24T05:19:04.959Z,0.45
2022-12-24T05:21:35.079Z,0.65
2022-12-24T05:24:21.207Z,0.90
2022-12-24T05:26:52.411Z,1.83
2022-12-24T05:29:22.531Z,0.50
2022-12-24T05:31:51.771Z,0.93
2022-12-24T05:34:20.447Z,0.60
2022-12-24T05:36:51.288Z,0.85
2022-12-24T05:39:22.390Z,0.70
2022-12-24T05:41:54.255Z,0.90
2022-12-24T05:44:23.238Z,0.85
2022-12-24T05:46:54.234Z,0.80
2022-12-24T05:49:24.922Z,1.02
2022-12-24T05:51:55.133Z,0.77
2022-12-24T05:54:26.441Z,0.98
2022-12-24T05:56:58.306Z,1.00
2022-12-24T05:59:30.454Z,0.95
2022-12-24T06:02:01.638Z,1.27
2022-12-24T06:04:33.489Z,0.70
2022-12-24T06:07:03.770Z,0.70
2022-12-24T06:09:32.594Z,0.52
2022-12-24T06:12:01.216Z,0.95
2022-12-24T06:14:30.018Z,0.77
2022-12-24T06:17:01.010Z,0.60
2022-12-24T06:19:29.801Z,0.80
2022-12-24T06:21:58.461Z,1.00
2022-12-24T06:24:28.485Z,1.10
2022-12-24T06:26:57.127Z,1.50
2022-12-24T06:29:27.433Z,1.80
2022-12-24T06:31:56.496Z,1.75
2022-12-24T06:34:25.265Z,1.60
2022-12-24T06:36:53.951Z,1.83
2022-12-24T06:39:22.868Z,1.50
2022-12-24T06:41:53.035Z,1.60
2022-12-24T06:44:21.896Z,1.70
2022-12-24T06:46:50.634Z,7.32
2022-12-24T06:49:19.554Z,17.93
2022-12-24T06:51:48.219Z,10.93
2022-12-24T06:54:16.861Z,11.45
2022-12-24T06:56:45.510Z,13.13
2022-12-24T06:59:15.491Z,8.73
2022-12-24T07:01:44.289Z,5.13
2022-12-24T07:04:19.651Z,4.03
2022-12-24T07:06:48.928Z,4.00
2022-12-24T07:09:17.579Z,5.28
2022-12-24T07:11:46.721Z,6.10
2022-12-24T07:14:22.798Z,5.40
2022-12-24T07:16:58.694Z,4.82
2022-12-24T07:19:27.923Z,4.43
2022-12-24T07:21:56.534Z,3.30
2022-12-24T07:24:25.214Z,3.20
2022-12-24T07:26:53.894Z,2.88
2022-12-24T07:29:24.288Z,3.15
2022-12-24T07:31:53.152Z,3.10
2022-12-24T07:34:21.888Z,2.73
2022-12-24T07:36:53.109Z,3.05
2022-12-24T07:39:21.845Z,3.15
2022-12-24T07:41:50.733Z,3.05
2022-12-24T07:44:19.546Z,3.23
2022-12-24T07:46:49.717Z,3.05
2022-12-24T07:49:18.545Z,18.17
2022-12-24T07:51:47.151Z,3.85
2022-12-24T07:54:16.880Z,3.00
2022-12-24T07:59:16.909Z,2.53
2022-12-24T08:01:45.848Z,2.38
2022-12-24T08:04:16.126Z,2.70
2022-12-24T08:06:44.848Z,2.55
2022-12-24T08:09:14.440Z,2.60
2022-12-24T08:11:51.591Z,2.90
2022-12-24T08:14:21.106Z,2.90
2022-12-24T08:16:49.786Z,3.10
2022-12-24T08:19:20.130Z,2.85
2022-12-24T08:21:48.833Z,2.83
2022-12-24T08:24:17.525Z,3.03
2022-12-24T08:26:46.268Z,2.35
2022-12-24T08:29:14.936Z,2.63
2022-12-24T08:31:44.620Z,3.10
2022-12-24T08:34:16.506Z,2.67
2022-12-24T08:36:50.207Z,2.95
2022-12-24T08:39:19.516Z,3.33
2022-12-24T08:41:48.183Z,3.03
2022-12-24T08:44:16.804Z,3.40
2022-12-24T08:46:45.656Z,2.97
2022-12-24T08:49:14.321Z,3.38
2022-12-24T08:51:43.930Z,3.50
2022-12-24T08:54:14.032Z,8.65
2022-12-24T08:56:42.723Z,19.73
2022-12-24T08:59:13.187Z,20.02
2022-12-24T09:01:42.004Z,16.35
2022-12-24T09:04:10.943Z,11.20
2022-12-24T09:06:39.661Z,10.73
2022-12-24T09:09:08.797Z,10.50
2022-12-24T09:11:39.092Z,11.02
2022-12-24T09:14:07.888Z,12.73
2022-12-24T09:16:36.562Z,13.55
2022-12-24T09:19:05.425Z,15.33
2022-12-24T09:21:34.116Z,14.82
2022-12-24T09:24:06.597Z,13.63
2022-12-24T09:26:36.499Z,16.25
2022-12-24T09:29:06.734Z,15.70
2022-12-24T09:31:35.895Z,15.45
2022-12-24T09:34:04.599Z,15.52
2022-12-24T09:36:33.299Z,14.38
2022-12-24T09:39:02.140Z,14.27
2022-12-24T09:41:42.460Z,13.33
2022-12-24T09:44:25.659Z,17.30
2022-12-24T09:46:56.413Z,16.67
2022-12-24T09:49:51.499Z,15.73
2022-12-24T09:52:29.780Z,15.10
2022-12-24T09:55:10.129Z,14.35
2022-12-24T09:57:41.937Z,13.95
2022-12-24T10:00:25.324Z,12.35
2022-12-24T10:02:54.407Z,12.52
2022-12-24T10:05:33.743Z,9.98
2022-12-24T10:08:13.039Z,9.13
2022-12-24T10:10:51.090Z,7.80
2022-12-24T10:13:36.252Z,7.47
2022-12-24T10:16:13.893Z,7.07
2022-12-24T10:18:55.078Z,5.63
2022-12-24T10:21:35.863Z,7.05
2022-12-24T10:24:11.624Z,4.60
2022-12-24T10:26:47.018Z,6.10
2022-12-24T10:29:19.585Z,5.57
2022-12-24T10:31:58.053Z,4.65
2022-12-24T10:34:34.260Z,5.18
2022-12-24T10:37:04.604Z,4.72
2022-12-24T10:39:33.615Z,4.22
2022-12-24T10:42:07.644Z,3.78
2022-12-24T10:44:42.425Z,4.25
2022-12-24T10:47:14.386Z,2.63
2022-12-24T10:49:49.053Z,3.53
2022-12-24T10:52:21.663Z,3.03
2022-12-24T10:55:11.396Z,3.13
2022-12-24T11:00:19.654Z,3.15
2022-12-24T11:02:51.379Z,3.03
2022-12-24T11:05:31.519Z,2.95
2022-12-24T11:08:03.868Z,3.30
2022-12-24T11:10:32.905Z,2.65
2022-12-24T11:13:35.840Z,3.35
2022-12-24T11:15:53.895Z,2.40
2022-12-24T11:18:24.124Z,3.13
2022-12-24T11:20:54.575Z,2.88
2022-12-24T11:23:24.645Z,3.92
2022-12-24T11:25:54.361Z,3.35
2022-12-24T11:28:25.077Z,3.67
2022-12-24T11:31:05.929Z,2.95
2022-12-24T11:33:50.093Z,1.25
2022-12-24T11:36:23.047Z,1.70
2022-12-24T11:38:55.213Z,2.13
2022-12-24T11:41:24.941Z,2.72
2022-12-24T11:44:03.930Z,2.65
2022-12-24T11:46:40.403Z,1.90
2022-12-24T11:49:23.250Z,2.00
2022-12-24T11:52:29.793Z,1.50
2022-12-24T11:55:22.607Z,1.60
2022-12-24T11:57:58.610Z,1.70
2022-12-24T12:00:28.821Z,1.17
2022-12-24T12:03:01.043Z,2.20
2022-12-24T12:05:34.644Z,1.67
2022-12-24T12:08:12.251Z,1.90
2022-12-24T12:10:44.462Z,1.52
2022-12-24T12:13:16.369Z,1.50
2022-12-24T12:15:49.766Z,1.30
2022-12-24T12:18:23.199Z,1.30
2022-12-24T12:20:56.754Z,1.80
2022-12-24T12:23:30.320Z,1.63
2022-12-24T12:26:01.645Z,1.60
2022-12-24T12:28:38.064Z,1.40
2022-12-24T12:31:16.688Z,2.03
2022-12-24T12:33:51.507Z,7.00
2022-12-24T12:36:25.839Z,4.80
2022-12-24T12:38:54.601Z,9.77
2022-12-24T12:41:33.200Z,6.60
2022-12-24T12:44:23.874Z,5.82
2022-12-24T12:47:04.779Z,5.30
2022-12-24T12:49:45.064Z,4.63
2022-12-24T12:52:25.391Z,6.43
2022-12-24T12:55:08.344Z,5.97
2022-12-24T12:57:39.693Z,4.80
2022-12-24T13:00:14.617Z,4.75
2022-12-24T13:03:26.978Z,5.05
2022-12-24T13:06:17.776Z,5.05
2022-12-24T13:09:25.990Z,5.50
2022-12-24T13:12:14.309Z,4.95
2022-12-24T13:14:58.756Z,4.78
2022-12-24T13:18:00.447Z,4.75
2022-12-24T13:20:32.749Z,4.43
2022-12-24T13:23:03.565Z,5.53
2022-12-24T13:25:38.386Z,5.15
2022-12-24T13:28:36.066Z,5.03
2022-12-24T13:31:25.109Z,5.38
2022-12-24T13:33:55.801Z,5.32
2022-12-24T13:36:24.807Z,4.78
2022-12-24T13:38:54.006Z,5.00
2022-12-24T13:41:59.196Z,5.00
2022-12-24T13:44:36.285Z,4.65
2022-12-24T13:47:18.667Z,4.60
2022-12-24T13:49:49.834Z,4.05
2022-12-24T13:52:26.012Z,4.13
2022-12-24T13:55:16.914Z,3.88
2022-12-24T13:57:54.306Z,4.15
2022-12-24T14:00:39.926Z,4.00
2022-12-24T14:03:22.712Z,4.53
2022-12-24T14:05:55.030Z,3.90
2022-12-24T14:08:34.714Z,3.90
2022-12-24T14:14:15.457Z,3.78
2022-12-24T14:16:50.743Z,4.65
2022-12-24T14:19:23.224Z,4.40
2022-12-24T14:21:58.107Z,4.35
2022-12-24T14:24:29.084Z,4.53
2022-12-24T14:27:02.108Z,4.72
2022-12-24T14:29:34.022Z,4.88
2022-12-24T14:32:13.773Z,4.20
2022-12-24T14:37:13.655Z,4.78
2022-12-24T14:39:47.670Z,4.60
2022-12-24T14:42:30.711Z,4.80
2022-12-24T14:45:10.051Z,5.40
2022-12-24T14:47:47.336Z,5.28
2022-12-24T14:50:37.810Z,5.93
2022-12-24T14:53:19.331Z,5.13
2022-12-24T14:55:50.135Z,5.90
2022-12-24T14:58:26.848Z,6.22
2022-12-24T15:00:58.234Z,5.72
2022-12-24T15:03:30.549Z,5.75
2022-12-24T15:06:03.263Z,5.80
2022-12-24T15:08:34.926Z,5.53
2022-12-24T15:11:07.133Z,5.35
2022-12-24T15:13:39.039Z,5.40
2022-12-24T15:16:11.599Z,5.03
2022-12-24T15:18:47.856Z,5.85
2022-12-24T15:21:21.110Z,6.40
2022-12-24T15:23:52.434Z,5.70
2022-12-24T15:26:26.922Z,5.40
2022-12-24T15:29:02.682Z,5.43
2022-12-24T15:31:33.078Z,5.30
2022-12-24T15:34:03.296Z,5.22
2022-12-24T15:36:34.785Z,6.30
2022-12-24T15:39:07.141Z,6.60
2022-12-24T15:42:01.340Z,7.75
2022-12-24T15:44:34.336Z,9.77
2022-12-24T15:47:04.328Z,12.80
2022-12-24T15:49:35.653Z,12.55
2022-12-24T15:52:06.999Z,15.27
2022-12-24T15:54:36.324Z,20.65
2022-12-24T15:57:16.364Z,23.25
2022-12-24T15:59:45.068Z,18.27
2022-12-24T16:02:35.817Z,18.88
2022-12-24T16:05:33.626Z,19.40
2022-12-24T16:08:10.375Z,20.60
2022-12-24T16:10:42.516Z,20.70
2022-12-24T16:13:17.632Z,18.52
2022-12-24T16:15:51.775Z,17.30
2022-12-24T16:18:25.193Z,16.45
2022-12-24T16:20:57.006Z,10.00
2022-12-24T16:23:28.524Z,9.73
2022-12-24T16:25:59.197Z,12.63
2022-12-24T16:28:28.129Z,8.75
2022-12-24T16:30:58.163Z,8.63
2022-12-24T16:33:26.923Z,6.88
2022-12-24T16:35:57.501Z,4.22
2022-12-24T16:38:46.898Z,5.88
2022-12-24T16:41:15.609Z,5.65
2022-12-24T16:43:52.143Z,4.30
2022-12-24T16:46:20.994Z,5.22
2022-12-24T16:48:50.459Z,5.67
2022-12-24T16:51:23.745Z,4.47
2022-12-24T16:53:52.642Z,5.20
2022-12-24T16:56:24.361Z,4.87
2022-12-24T16:58:53.166Z,4.80
2022-12-24T17:01:22.094Z,4.22
2022-12-24T17:03:50.966Z,4.03
2022-12-24T17:06:25.528Z,4.38
2022-12-24T17:08:54.345Z,4.55
2022-12-24T17:11:24.945Z,4.07
2022-12-24T17:13:56.728Z,4.30
2022-12-24T17:16:25.786Z,4.40
2022-12-24T17:18:55.593Z,4.30
2022-12-24T17:23:56.954Z,4.40
2022-12-24T17:26:25.850Z,4.63
2022-12-24T17:28:55.674Z,7.93
2022-12-24T17:33:54.092Z,4.78
2022-12-24T17:36:24.329Z,5.13
2022-12-24T17:38:57.144Z,5.50
2022-12-24T17:41:26.240Z,5.63
2022-12-24T17:43:55.263Z,5.57
2022-12-24T17:46:25.943Z,5.47
2022-12-24T17:48:54.696Z,5.90
2022-12-24T17:51:24.602Z,5.25
2022-12-24T17:54:18.812Z,5.18
2022-12-24T17:56:50.651Z,5.95
2022-12-24T17:59:21.427Z,5.38
2022-12-24T18:01:50.488Z,5.35
2022-12-24T18:04:19.381Z,5.68
2022-12-24T18:06:49.821Z,5.95
2022-12-24T18:09:22.161Z,5.05
2022-12-24T18:11:50.980Z,4.97
2022-12-24T18:14:20.227Z,5.20
2022-12-24T18:16:49.895Z,5.35
2022-12-24T18:21:47.299Z,5.88
2022-12-24T18:24:16.257Z,7.17
2022-12-24T18:26:47.216Z,10.70
2022-12-24T18:29:18.664Z,10.02
2022-12-24T18:31:47.427Z,10.15
2022-12-24T18:34:19.129Z,15.00
2022-12-24T18:36:55.456Z,18.05
2022-12-24T18:39:24.915Z,24.40
2022-12-24T18:41:55.194Z,23.85
2022-12-24T18:44:25.545Z,22.98
2022-12-24T18:46:55.253Z,22.83
2022-12-24T18:49:24.127Z,18.63
2022-12-24T18:51:52.919Z,18.13
2022-12-24T18:54:21.811Z,19.95
2022-12-24T18:56:52.202Z,21.95
2022-12-24T18:59:24.901Z,21.95
2022-12-24T19:01:58.311Z,23.27
2022-12-24T19:04:27.348Z,23.17
2022-12-24T19:06:56.238Z,24.38
2022-12-24T19:09:33.364Z,22.55
2022-12-24T19:12:02.248Z,21.42
2022-12-24T19:14:32.514Z,16.77
2022-12-24T19:17:01.391Z,14.30
2022-12-24T19:19:30.940Z,11.27
2022-12-24T19:22:02.039Z,11.52
2022-12-24T19:24:33.792Z,14.00
2022-12-24T19:27:02.834Z,19.65
2022-12-24T19:29:32.984Z,30.90
2022-12-24T19:32:02.212Z,35.45
2022-12-24T19:34:31.219Z,45.00
2022-12-24T19:36:59.889Z,47.97
2022-12-24T19:39:32.091Z,48.30
2022-12-24T19:42:01.304Z,39.72
2022-12-24T19:44:30.261Z,26.73
2022-12-24T19:47:00.476Z,28.50
2022-12-24T19:49:29.450Z,29.08
2022-12-24T19:51:58.121Z,28.37
2022-12-24T19:54:29.740Z,26.23
2022-12-24T19:58:00.463Z,24.48
2022-12-24T20:00:29.221Z,18.90
2022-12-24T20:03:01.067Z,16.50
2022-12-24T20:05:29.944Z,14.07
2022-12-24T20:08:00.475Z,14.88
2022-12-24T20:10:30.824Z,12.60
2022-12-24T20:13:05.560Z,16.30
2022-12-24T20:15:39.122Z,18.45
2022-12-24T20:18:10.739Z,15.63
2022-12-24T20:20:40.185Z,14.10
2022-12-24T20:23:09.522Z,13.85
2022-12-24T20:25:39.408Z,15.48
2022-12-24T20:28:11.493Z,14.13
2022-12-24T20:30:40.607Z,14.15
2022-12-24T20:33:10.760Z,13.63
2022-12-24T20:35:39.550Z,12.30
2022-12-24T20:38:08.350Z,20.13
2022-12-24T20:40:40.846Z,20.73
2022-12-24T20:43:10.097Z,18.00
2022-12-24T20:45:39.416Z,13.07
2022-12-24T20:48:12.735Z,14.70
2022-12-24T20:50:42.332Z,23.38
2022-12-24T20:53:11.376Z,39.20
2022-12-24T20:55:42.987Z,30.83
2022-12-24T20:58:14.004Z,28.92
2022-12-24T21:03:12.582Z,15.35
2022-12-24T21:05:42.086Z,7.97
2022-12-24T21:08:13.894Z,12.77
2022-12-24T21:10:43.636Z,13.77
2022-12-24T21:13:14.162Z,13.23
2022-12-24T21:15:56.923Z,16.02
2022-12-24T21:18:31.465Z,13.93
2022-12-24T21:21:02.767Z,9.10
2022-12-24T21:23:31.573Z,11.52
2022-12-24T21:26:14.918Z,18.58
2022-12-24T21:28:46.545Z,11.13
2022-12-24T21:31:16.395Z,9.82
2022-12-24T21:36:18.287Z,5.60
2022-12-24T21:38:48.060Z,10.30
2022-12-24T21:43:47.184Z,7.85
2022-12-24T21:46:23.248Z,6.30
2022-12-24T21:49:12.270Z,9.00
2022-12-24T21:51:41.690Z,15.27
2022-12-24T21:54:28.440Z,8.68
2022-12-24T21:57:17.178Z,6.28
2022-12-24T21:59:48.405Z,5.82
2022-12-24T22:02:17.619Z,5.50
2022-12-24T22:04:47.929Z,4.97
2022-12-24T22:07:41.551Z,4.88
2022-12-24T22:10:29.447Z,4.00
2022-12-24T22:13:00.964Z,5.68
2022-12-24T22:15:32.323Z,5.10
2022-12-24T22:18:03.800Z,5.07
2022-12-24T22:20:41.499Z,4.60
2022-12-24T22:23:15.764Z,4.43
2022-12-24T22:25:47.996Z,4.65
2022-12-24T22:28:16.783Z,4.85
2022-12-24T22:31:15.358Z,4.30
2022-12-24T22:33:49.932Z,4.85
2022-12-24T22:36:22.758Z,5.20
2022-12-24T22:38:53.903Z,4.38
2022-12-24T22:41:22.773Z,4.90
2022-12-24T22:43:57.190Z,4.75
2022-12-24T22:46:26.133Z,4.93
2022-12-24T22:48:56.892Z,5.03
2022-12-24T22:51:27.054Z,4.50
2022-12-24T22:53:57.020Z,4.75
2022-12-24T22:58:55.748Z,4.45
2022-12-24T23:01:35.620Z,5.22
2022-12-24T23:04:08.949Z,5.68
2022-12-24T23:06:43.742Z,6.00
2022-12-24T23:09:16.048Z,7.65
2022-12-24T23:11:46.312Z,7.75
2022-12-24T23:14:35.226Z,8.55
2022-12-24T23:17:04.350Z,8.17
2022-12-24T23:19:33.764Z,8.85
2022-12-24T23:22:06.461Z,9.13
2022-12-24T23:24:41.583Z,8.88
2022-12-24T23:27:10.322Z,9.13
2022-12-24T23:29:38.955Z,8.65
2022-12-24T23:32:07.692Z,8.18
2022-12-24T23:34:36.403Z,8.55
2022-12-24T23:37:06.640Z,9.97
2022-12-24T23:39:35.413Z,11.70
2022-12-24T23:42:04.214Z,11.70
2022-12-24T23:44:33.063Z,14.25
2022-12-24T23:47:04.445Z,19.10
2022-12-24T23:49:35.545Z,18.23
2022-12-24T23:52:07.782Z,12.20
2022-12-24T23:54:39.789Z,10.10
2022-12-24T23:57:08.587Z,7.88
2022-12-24T23:59:37.428Z,8.57
